Time;durP1;ratioP1;P1;durP2;ratioP2;P2;SDS_P1;SDS_P2;PMS_P1;PMS_P2;Temp;Humidity;BMP_temperature;BMP_pressure;BME280_temperature;BME280_humidity;BME280_pressure;Samples;Min_cycle;Max_cycle;Signal;HPM_P1;HPM_P2
2023/04/20 00:00:39;;;;;;;3.95;1.30;;;13.70;66.70;;;;;;7399131;19;19921;-72
2023/04/20 00:03:06;;;;;;;3.08;1.40;;;13.60;66.60;;;;;;7399144;19;19914;-72
2023/04/20 00:05:31;;;;;;;;;;;13.70;66.60;;;;;;7397679;19;19911;-71
2023/04/20 00:07:57;;;;;;;4.38;1.40;;;13.60;66.10;;;;;;7397379;19;19929;-70
2023/04/20 00:10:23;;;;;;;4.80;1.30;;;13.70;65.70;;;;;;7398679;19;19929;-70
2023/04/20 00:12:49;;;;;;;2.42;1.00;;;13.80;65.60;;;;;;7398152;19;19915;-71
2023/04/20 00:15:16;;;;;;;3.70;1.00;;;13.90;65.40;;;;;;7396597;19;19914;-71
2023/04/20 00:17:43;;;;;;;4.28;1.05;;;13.90;64.70;;;;;;7397988;19;19998;-70
2023/04/20 00:20:09;;;;;;;3.28;1.10;;;14.00;64.80;;;;;;7399229;19;19914;-70
2023/04/20 00:22:35;;;;;;;2.92;1.10;;;14.00;64.60;;;;;;7398728;19;20248;-70
2023/04/20 00:25:01;;;;;;;3.55;1.55;;;13.90;64.90;;;;;;7399676;19;20314;-71
2023/04/20 00:27:27;;;;;;;3.17;1.13;;;13.80;65.00;;;;;;7402570;19;19931;-71
2023/04/20 00:29:53;;;;;;;2.42;0.90;;;13.80;65.30;;;;;;7405502;19;19935;-71
2023/04/20 00:32:19;;;;;;;3.10;1.00;;;13.80;65.00;;;;;;7403329;19;19946;-71
2023/04/20 00:34:44;;;;;;;2.67;1.08;;;13.90;64.80;;;;;;7405316;19;19938;-71
2023/04/20 00:37:10;;;;;;;5.35;1.35;;;13.90;64.60;;;;;;7403233;19;19918;-71
2023/04/20 00:39:36;;;;;;;2.33;0.82;;;13.90;64.40;;;;;;7406192;19;19930;-71
2023/04/20 00:42:06;;;;;;;3.03;1.05;;;14.00;63.90;;;;;;7405619;19;19910;-70
2023/04/20 00:44:32;;;;;;;3.45;1.15;;;14.10;63.90;;;;;;7401239;19;19914;-71
2023/04/20 00:46:58;;;;;;;3.28;0.75;;;14.10;64.10;;;;;;7402899;19;19942;-71
2023/04/20 00:49:28;;;;;;;3.65;1.30;;;14.20;64.00;;;;;;7400702;19;19918;-71
2023/04/20 00:51:56;;;;;;;3.92;1.00;;;14.10;64.10;;;;;;7401375;19;19931;-71
2023/04/20 00:54:22;;;;;;;5.38;1.13;;;14.00;64.20;;;;;;7403311;19;20359;-72
2023/04/20 00:56:49;;;;;;;3.35;0.80;;;14.10;63.60;;;;;;7404462;19;19954;-71
2023/04/20 00:59:15;;;;;;;4.35;1.33;;;14.20;63.10;;;;;;7400954;19;19941;-71
2023/04/20 01:01:41;;;;;;;3.22;1.30;;;14.20;63.00;;;;;;7405955;19;19926;-72
2023/04/20 01:04:08;;;;;;;3.20;0.98;;;14.30;62.80;;;;;;7403061;19;20224;-72
2023/04/20 01:06:34;;;;;;;2.33;1.00;;;14.30;62.20;;;;;;7404568;19;20681;-71
2023/04/20 01:09:00;;;;;;;3.35;1.10;;;14.40;62.20;;;;;;7407194;19;19918;-71
2023/04/20 01:11:26;;;;;;;2.92;0.80;;;14.40;62.20;;;;;;7402062;19;19919;-72
2023/04/20 01:13:52;;;;;;;3.35;1.63;;;14.40;61.50;;;;;;7403402;19;20279;-71
2023/04/20 01:16:17;;;;;;;2.58;0.90;;;14.40;61.60;;;;;;7397400;19;19922;-71
2023/04/20 01:18:46;;;;;;;3.50;1.10;;;14.50;61.40;;;;;;7402328;19;19999;-71
2023/04/20 01:21:13;;;;;;;3.03;1.10;;;14.40;61.70;;;;;;7403057;19;19995;-70
2023/04/20 01:23:39;;;;;;;2.30;0.85;;;14.40;61.50;;;;;;7403055;19;19915;-71
2023/04/20 01:26:09;;;;;;;3.97;0.95;;;14.50;61.20;;;;;;7401700;19;19998;-71
2023/04/20 01:28:35;;;;;;;2.58;1.00;;;14.50;61.30;;;;;;7404336;19;19919;-72
2023/04/20 01:31:05;;;;;;;4.85;1.38;;;14.50;61.50;;;;;;7406242;19;20293;-70
2023/04/20 01:33:31;;;;;;;4.45;1.73;;;14.40;61.70;;;;;;7404263;19;19915;-71
2023/04/20 01:35:57;;;;;;;3.30;1.00;;;14.40;61.70;;;;;;7403332;19;19907;-72
2023/04/20 01:38:24;;;;;;;3.67;1.10;;;14.40;62.20;;;;;;7403195;19;19986;-71
2023/04/20 01:40:50;;;;;;;3.65;0.93;;;14.20;62.50;;;;;;7404156;19;19910;-71
2023/04/20 01:43:17;;;;;;;3.25;1.20;;;14.10;62.90;;;;;;7403210;19;20339;-71
2023/04/20 01:45:43;;;;;;;;;;;14.20;62.90;;;;;;7406999;19;19967;-71
2023/04/20 01:48:09;;;;;;;3.38;0.88;;;14.10;62.80;;;;;;7402776;19;19923;-70
2023/04/20 01:50:34;;;;;;;4.72;1.00;;;14.10;63.10;;;;;;7404564;19;19917;-72
2023/04/20 01:53:00;;;;;;;4.85;2.03;;;14.00;63.40;;;;;;7382927;19;20255;-71
2023/04/20 01:55:26;;;;;;;5.30;1.23;;;14.00;63.30;;;;;;7402013;19;19945;-72
2023/04/20 01:57:51;;;;;;;3.60;1.38;;;13.80;63.60;;;;;;7405293;19;19914;-71
2023/04/20 02:00:17;;;;;;;5.50;1.10;;;13.90;63.80;;;;;;7401920;19;19918;-71
2023/04/20 02:02:43;;;;;;;2.75;0.90;;;13.90;63.20;;;;;;7403548;19;19925;-70
2023/04/20 02:05:09;;;;;;;3.67;1.20;;;14.00;62.90;;;;;;7402700;19;19927;-71
2023/04/20 02:07:35;;;;;;;4.38;1.33;;;14.00;62.70;;;;;;7405228;19;19926;-71
2023/04/20 02:10:01;;;;;;;2.95;1.33;;;13.90;64.00;;;;;;7402878;19;19918;-71
2023/04/20 02:12:27;;;;;;;4.72;1.45;;;13.80;64.60;;;;;;7399988;19;19930;-72
2023/04/20 02:14:52;;;;;;;3.42;1.27;;;13.80;64.70;;;;;;7404701;19;19925;-70
2023/04/20 02:17:18;;;;;;;4.30;1.20;;;13.80;64.70;;;;;;7402959;19;19918;-71
2023/04/20 02:19:45;;;;;;;4.68;1.45;;;13.70;64.90;;;;;;7403309;19;19922;-70
2023/04/20 02:22:11;;;;;;;;;;;13.60;65.30;;;;;;7405369;19;19910;-70
2023/04/20 02:24:37;;;;;;;3.75;1.05;;;13.40;65.50;;;;;;7404148;19;20371;-72
2023/04/20 02:27:03;;;;;;;3.22;1.10;;;13.40;66.00;;;;;;7399924;19;19926;-71
2023/04/20 02:29:29;;;;;;;5.55;1.50;;;13.30;65.70;;;;;;7404532;19;19918;-73
2023/04/20 02:31:55;;;;;;;4.63;1.60;;;13.20;65.90;;;;;;7402164;19;20278;-71
2023/04/20 02:34:21;;;;;;;5.13;1.40;;;13.20;66.00;;;;;;7403255;19;19911;-71
2023/04/20 02:36:47;;;;;;;3.75;1.55;;;13.20;65.80;;;;;;7402998;19;19926;-71
2023/04/20 02:39:13;;;;;;;4.30;1.20;;;13.30;65.70;;;;;;7402433;19;19921;-71
2023/04/20 02:41:40;;;;;;;4.68;1.30;;;13.10;66.10;;;;;;7405074;19;19919;-72
2023/04/20 02:44:05;;;;;;;4.40;1.17;;;13.20;66.00;;;;;;7400818;19;19918;-71
2023/04/20 02:46:31;;;;;;;3.08;1.08;;;13.30;65.80;;;;;;7403173;19;19914;-71
2023/04/20 02:48:57;;;;;;;3.72;0.93;;;13.30;65.30;;;;;;7401008;19;20002;-71
2023/04/20 02:51:23;;;;;;;4.88;1.15;;;13.30;64.60;;;;;;7398882;19;19930;-71
2023/04/20 02:53:49;;;;;;;3.20;1.02;;;13.40;64.50;;;;;;7402518;19;19930;-70
2023/04/20 02:56:15;;;;;;;3.10;1.05;;;13.50;63.00;;;;;;7399586;19;20353;-70
2023/04/20 02:58:40;;;;;;;3.53;1.13;;;13.60;62.80;;;;;;7402334;19;19982;-70
2023/04/20 03:01:06;;;;;;;2.60;0.90;;;13.70;62.40;;;;;;7401395;19;19926;-70
2023/04/20 03:03:32;;;;;;;5.40;1.10;;;13.70;62.50;;;;;;7401621;19;19942;-70
2023/04/20 03:05:58;;;;;;;3.90;1.10;;;13.70;62.50;;;;;;7401694;19;19920;-71
2023/04/20 03:08:24;;;;;;;4.53;1.10;;;13.70;62.50;;;;;;7401222;19;19978;-71
2023/04/20 03:10:49;;;;;;;4.95;1.40;;;13.80;62.10;;;;;;7403784;19;19919;-70
2023/04/20 03:13:15;;;;;;;2.90;0.85;;;13.80;61.90;;;;;;7399484;19;19911;-70
2023/04/20 03:15:42;;;;;;;2.80;0.90;;;13.80;62.10;;;;;;7401037;19;19947;-71
2023/04/20 03:18:08;;;;;;;3.80;0.98;;;13.80;61.70;;;;;;7399474;19;19922;-71
2023/04/20 03:20:34;;;;;;;3.20;1.20;;;13.70;61.90;;;;;;7368657;19;20254;-71
2023/04/20 03:23:01;;;;;;;;;;;13.90;61.70;;;;;;7404728;19;20010;-70
2023/04/20 03:25:27;;;;;;;3.10;1.20;;;13.90;61.50;;;;;;7401595;19;19927;-70
2023/04/20 03:27:53;;;;;;;2.60;0.82;;;13.90;61.50;;;;;;7400205;19;19946;-70
2023/04/20 03:30:18;;;;;;;3.40;1.10;;;13.90;61.80;;;;;;7397500;19;19919;-70
2023/04/20 03:32:44;;;;;;;2.83;0.98;;;13.90;61.70;;;;;;7398697;19;19918;-70
2023/04/20 03:35:10;;;;;;;2.83;0.82;;;13.80;62.10;;;;;;7398820;19;20268;-70
2023/04/20 03:37:37;;;;;;;2.50;0.90;;;13.80;62.10;;;;;;7401107;19;19919;-70
2023/04/20 03:40:04;;;;;;;5.72;1.30;;;13.80;62.10;;;;;;7398798;19;19961;-71
2023/04/20 03:42:30;;;;;;;2.92;1.08;;;13.80;62.00;;;;;;7401096;19;19947;-71
2023/04/20 03:44:56;;;;;;;3.65;1.13;;;13.80;62.00;;;;;;7401193;19;19919;-71
2023/04/20 03:47:22;;;;;;;2.90;1.00;;;13.70;62.60;;;;;;7397734;19;22319;-71
2023/04/20 03:49:47;;;;;;;3.97;1.50;;;13.80;61.90;;;;;;7395422;19;20269;-71
2023/04/20 03:52:13;;;;;;;2.85;0.90;;;13.60;62.30;;;;;;7396089;19;19939;-71
2023/04/20 03:54:39;;;;;;;3.00;1.10;;;13.60;62.10;;;;;;7394731;19;20040;-71
2023/04/20 03:57:05;;;;;;;4.38;0.98;;;13.60;62.10;;;;;;7397137;19;19948;-71
2023/04/20 03:59:31;;;;;;;3.20;1.20;;;13.60;62.40;;;;;;7398785;19;20086;-71
2023/04/20 04:01:59;;;;;;;4.60;1.20;;;13.50;62.60;;;;;;7395009;19;19948;-71
2023/04/20 04:04:24;;;;;;;4.45;1.20;;;13.40;62.70;;;;;;7398491;19;20288;-71
2023/04/20 04:06:50;;;;;;;2.75;0.85;;;13.40;62.80;;;;;;7394780;19;19918;-72
2023/04/20 04:09:16;;;;;;;4.43;1.10;;;13.50;62.70;;;;;;7399040;19;19923;-71
2023/04/20 04:11:42;;;;;;;3.25;1.10;;;13.60;62.50;;;;;;7397614;19;19927;-71
2023/04/20 04:14:08;;;;;;;4.00;1.13;;;13.60;62.90;;;;;;7397949;19;19925;-72
2023/04/20 04:16:33;;;;;;;2.80;1.00;;;13.60;62.90;;;;;;7395982;19;19925;-71
2023/04/20 04:18:59;;;;;;;3.85;1.60;;;13.50;63.20;;;;;;7400334;19;20252;-71
2023/04/20 04:21:26;;;;;;;4.50;1.33;;;13.60;63.50;;;;;;7395149;19;19914;-73
2023/04/20 04:23:52;;;;;;;2.40;0.85;;;13.50;63.60;;;;;;7396932;19;20367;-72
2023/04/20 04:26:20;;;;;;;3.50;1.10;;;13.60;62.50;;;;;;7393522;19;19922;-70
2023/04/20 04:28:46;;;;;;;4.07;1.10;;;13.70;62.70;;;;;;7399768;19;19931;-71
2023/04/20 04:31:11;;;;;;;4.35;1.25;;;13.50;63.70;;;;;;7394798;19;19922;-70
2023/04/20 04:33:37;;;;;;;3.17;1.20;;;13.30;63.90;;;;;;7399993;19;19951;-70
2023/04/20 04:36:04;;;;;;;6.20;1.42;;;13.30;63.70;;;;;;7396617;19;19955;-70
2023/04/20 04:38:32;;;;;;;3.67;1.23;;;13.30;64.30;;;;;;7399374;19;20331;-70
2023/04/20 04:40:58;;;;;;;3.63;1.30;;;13.20;64.30;;;;;;7398435;19;19915;-72
2023/04/20 04:43:24;;;;;;;3.90;1.23;;;13.20;64.60;;;;;;7396367;19;19935;-70
2023/04/20 04:45:50;;;;;;;3.05;0.90;;;13.00;64.60;;;;;;7398125;19;19959;-70
2023/04/20 04:48:16;;;;;;;4.05;1.10;;;13.00;65.00;;;;;;7395522;19;19922;-71
2023/04/20 04:50:41;;;;;;;3.42;1.20;;;12.90;65.10;;;;;;7396671;19;19990;-70
2023/04/20 04:53:07;;;;;;;5.53;1.20;;;12.90;65.40;;;;;;7392563;19;19923;-71
2023/04/20 04:55:33;;;;;;;4.68;1.20;;;13.00;65.70;;;;;;7400178;19;19999;-70
2023/04/20 04:58:00;;;;;;;3.58;0.93;;;13.20;64.70;;;;;;7396760;19;19949;-70
2023/04/20 05:00:26;;;;;;;4.28;0.90;;;13.40;63.10;;;;;;7396590;19;19918;-71
2023/04/20 05:02:54;;;;;;;3.53;1.13;;;13.50;62.40;;;;;;7395139;19;19915;-70
2023/04/20 05:05:20;;;;;;;2.92;0.90;;;13.50;63.30;;;;;;7398843;19;19925;-71
2023/04/20 05:07:46;;;;;;;7.00;1.17;;;13.90;61.20;;;;;;7396279;19;20325;-71
2023/04/20 05:10:12;;;;;;;3.03;1.05;;;13.90;61.80;;;;;;7394543;19;19914;-72
2023/04/20 05:12:38;;;;;;;3.17;1.13;;;13.80;62.00;;;;;;7402317;19;19950;-71
2023/04/20 05:15:05;;;;;;;4.75;1.10;;;13.90;61.00;;;;;;7402858;19;19918;-73
2023/04/20 05:17:31;;;;;;;11.93;1.52;;;13.80;62.00;;;;;;7406485;19;19918;-72
2023/04/20 05:19:57;;;;;;;3.47;1.02;;;13.80;61.90;;;;;;7406639;19;20374;-73
2023/04/20 05:22:23;;;;;;;3.17;1.10;;;13.80;61.70;;;;;;7404390;19;19950;-72
2023/04/20 05:24:49;;;;;;;2.65;1.10;;;13.90;61.30;;;;;;7405228;19;20356;-71
2023/04/20 05:27:15;;;;;;;3.58;1.17;;;14.00;60.80;;;;;;7402108;19;19918;-70
2023/04/20 05:29:40;;;;;;;3.55;1.00;;;14.00;61.60;;;;;;7405138;19;20349;-71
2023/04/20 05:32:06;;;;;;;4.20;1.00;;;13.90;61.40;;;;;;7402517;19;19946;-70
2023/04/20 05:34:32;;;;;;;4.10;1.00;;;13.90;61.90;;;;;;7401350;19;19922;-71
2023/04/20 05:36:58;;;;;;;5.28;1.15;;;14.00;60.90;;;;;;7371954;19;19914;-71
2023/04/20 05:39:25;;;;;;;3.03;0.98;;;13.90;61.50;;;;;;7400985;19;20900;-71
2023/04/20 05:41:51;;;;;;;4.00;1.33;;;13.90;61.10;;;;;;7404665;19;19921;-70
2023/04/20 05:44:16;;;;;;;3.92;1.13;;;14.00;61.30;;;;;;7398817;19;20017;-70
2023/04/20 05:46:42;;;;;;;4.03;1.30;;;14.10;60.20;;;;;;7402677;19;20013;-71
2023/04/20 05:49:08;;;;;;;4.75;1.80;;;14.00;61.30;;;;;;7402922;19;19915;-70
2023/04/20 05:51:34;;;;;;;2.75;1.00;;;14.00;61.20;;;;;;7403238;19;20307;-71
2023/04/20 05:54:00;;;;;;;4.68;1.45;;;14.20;59.80;;;;;;7401717;19;20343;-71
2023/04/20 05:56:26;;;;;;;3.47;1.23;;;14.40;60.10;;;;;;7401776;19;19915;-71
2023/04/20 05:58:53;;;;;;;5.20;1.52;;;14.30;60.90;;;;;;7404368;19;19915;-71
2023/04/20 06:01:19;;;;;;;3.53;1.08;;;14.20;60.60;;;;;;7403377;19;19911;-71
2023/04/20 06:03:45;;;;;;;2.88;0.93;;;14.50;59.30;;;;;;7400864;19;19937;-70
2023/04/20 06:06:11;;;;;;;3.25;1.17;;;14.60;58.70;;;;;;7402566;19;19943;-70
2023/04/20 06:08:36;;;;;;;3.92;1.20;;;14.80;57.90;;;;;;7402791;19;19910;-71
2023/04/20 06:11:02;;;;;;;4.68;1.30;;;15.00;58.00;;;;;;7400870;19;20270;-71
2023/04/20 06:13:28;;;;;;;4.43;1.00;;;15.00;58.20;;;;;;7391433;19;19921;-70
2023/04/20 06:15:54;;;;;;;5.90;1.40;;;15.00;57.90;;;;;;7403959;19;19919;-70
2023/04/20 06:18:20;;;;;;;5.30;1.20;;;14.90;58.50;;;;;;7399813;19;19942;-70
2023/04/20 06:20:46;;;;;;;3.30;1.25;;;15.00;58.10;;;;;;7398665;19;20010;-69
2023/04/20 06:23:11;;;;;;;3.33;1.05;;;15.00;58.10;;;;;;7400875;19;19922;-71
2023/04/20 06:25:38;;;;;;;4.63;1.20;;;15.00;58.00;;;;;;7401492;19;19914;-70
2023/04/20 06:28:05;;;;;;;4.00;1.23;;;15.00;58.70;;;;;;7402594;19;19954;-70
2023/04/20 06:30:33;;;;;;;5.65;1.40;;;14.90;59.40;;;;;;7402518;19;20071;-71
2023/04/20 06:33:00;;;;;;;3.38;1.30;;;14.90;59.60;;;;;;7403635;19;19914;-70
2023/04/20 06:35:26;;;;;;;6.00;1.92;;;14.90;59.30;;;;;;7402038;19;19927;-71
2023/04/20 06:37:53;;;;;;;4.47;1.40;;;15.00;59.60;;;;;;7402228;19;19910;-70
2023/04/20 06:40:19;;;;;;;4.53;1.05;;;15.00;59.50;;;;;;7401852;19;20031;-70
2023/04/20 06:42:45;;;;;;;5.20;1.30;;;15.00;59.40;;;;;;7400476;19;19927;-71
2023/04/20 06:45:12;;;;;;;4.38;1.48;;;15.00;59.50;;;;;;7406722;19;19914;-78
2023/04/20 06:47:37;;;;;;;;;;;15.00;59.60;;;;;;7415166;19;19918;-79
2023/04/20 06:50:08;;;;;;;6.25;1.45;;;15.00;59.70;;;;;;7414813;19;19942;-78
2023/04/20 06:52:38;;;;;;;9.20;1.80;;;15.10;59.60;;;;;;7416224;19;19910;-80
2023/04/20 06:55:04;;;;;;;7.70;1.83;;;15.10;59.80;;;;;;7410330;19;19948;-81
2023/04/20 06:57:30;;;;;;;3.90;1.50;;;15.20;59.70;;;;;;7415895;19;19942;-78
2023/04/20 07:00:00;;;;;;;8.15;1.30;;;15.20;58.60;;;;;;7416249;19;19929;-79
2023/04/20 07:02:26;;;;;;;16.48;2.03;;;15.30;58.80;;;;;;7408482;19;19938;-72
2023/04/20 07:04:52;;;;;;;3.40;1.33;;;15.40;58.60;;;;;;7399709;19;19918;-70
2023/04/20 07:07:17;;;;;;;6.70;1.70;;;15.40;58.60;;;;;;7398266;19;19914;-70
2023/04/20 07:09:43;;;;;;;5.28;1.42;;;15.50;58.60;;;;;;7397883;19;19929;-71
2023/04/20 07:12:10;;;;;;;6.32;1.88;;;15.60;58.50;;;;;;7399296;19;19914;-70
2023/04/20 07:14:36;;;;;;;6.18;1.48;;;15.60;58.30;;;;;;7400762;19;19918;-70
2023/04/20 07:17:01;;;;;;;5.50;1.65;;;15.70;58.40;;;;;;7402975;19;19946;-71
2023/04/20 07:19:27;;;;;;;8.82;1.65;;;15.80;58.50;;;;;;7397246;19;19926;-71
2023/04/20 07:21:53;;;;;;;6.07;1.40;;;15.90;58.00;;;;;;7402372;19;19932;-71
2023/04/20 07:24:19;;;;;;;5.03;1.45;;;16.00;57.20;;;;;;7398706;19;19915;-71
2023/04/20 07:26:45;;;;;;;8.50;1.90;;;16.10;56.70;;;;;;7381917;19;19919;-72
2023/04/20 07:29:10;;;;;;;6.75;1.33;;;16.20;56.40;;;;;;7391862;19;19918;-70
2023/04/20 07:31:36;;;;;;;5.25;1.48;;;16.30;55.90;;;;;;7392258;19;20275;-71
2023/04/20 07:34:02;;;;;;;7.18;1.88;;;16.30;55.80;;;;;;7393388;19;19915;-71
2023/04/20 07:36:28;;;;;;;4.10;1.77;;;16.50;55.90;;;;;;7388185;19;20310;-70
2023/04/20 07:38:54;;;;;;;4.07;1.10;;;16.60;55.80;;;;;;7395588;19;19941;-70
2023/04/20 07:41:21;;;;;;;4.15;1.55;;;16.50;55.70;;;;;;7389583;19;20252;-71
2023/04/20 07:43:47;;;;;;;6.35;1.50;;;16.60;55.70;;;;;;7396451;19;19914;-70
2023/04/20 07:46:22;;;;;;;6.60;1.48;;;16.70;55.70;;;;;;7388385;19;19933;-72
2023/04/20 07:48:48;;;;;;;6.55;1.13;;;16.90;55.10;;;;;;7394051;19;19942;-75
2023/04/20 07:51:14;;;;;;;6.03;2.42;;;17.00;54.00;;;;;;7400166;19;19978;-71
2023/04/20 07:53:41;;;;;;;5.63;1.20;;;17.10;54.00;;;;;;7399662;19;19960;-71
2023/04/20 07:56:07;;;;;;;7.85;2.05;;;17.10;53.30;;;;;;7388201;19;20355;-71
2023/04/20 07:58:33;;;;;;;4.72;1.27;;;17.20;53.10;;;;;;7392806;19;19910;-72
2023/04/20 08:00:59;;;;;;;5.13;1.23;;;17.30;53.00;;;;;;7382683;19;20370;-73
2023/04/20 08:03:26;;;;;;;7.57;1.33;;;17.40;53.10;;;;;;7386087;19;19919;-72
2023/04/20 08:05:51;;;;;;;3.67;1.13;;;17.40;52.60;;;;;;7386114;19;19910;-72
2023/04/20 08:08:17;;;;;;;3.20;1.00;;;17.50;52.60;;;;;;7389997;19;19987;-72
2023/04/20 08:10:43;;;;;;;7.05;1.55;;;17.50;52.90;;;;;;7391574;19;19923;-72
2023/04/20 08:13:09;;;;;;;5.05;1.33;;;17.50;53.00;;;;;;7390802;19;19918;-71
2023/04/20 08:15:35;;;;;;;5.07;1.55;;;17.60;52.80;;;;;;7392141;19;19923;-71
2023/04/20 08:18:00;;;;;;;5.38;1.50;;;17.60;53.00;;;;;;7361482;19;20327;-70
2023/04/20 08:20:26;;;;;;;6.10;1.60;;;17.40;53.10;;;;;;7397297;19;19918;-70
2023/04/20 08:22:52;;;;;;;9.32;2.13;;;17.40;52.90;;;;;;7387973;19;20396;-71
2023/04/20 08:25:18;;;;;;;9.73;1.90;;;17.70;53.70;;;;;;7394515;19;19954;-71
2023/04/20 08:27:44;;;;;;;9.00;2.08;;;17.70;53.20;;;;;;7399333;19;19919;-71
2023/04/20 08:30:10;;;;;;;8.00;2.22;;;17.80;53.90;;;;;;7394527;19;20231;-72
2023/04/20 08:32:36;;;;;;;7.00;1.85;;;17.90;53.40;;;;;;7399730;19;19921;-70
2023/04/20 08:35:04;;;;;;;8.90;2.33;;;18.10;53.50;;;;;;7397621;19;19929;-71
2023/04/20 08:37:29;;;;;;;10.68;2.80;;;19.70;52.30;;;;;;7399576;19;19942;-71
2023/04/20 08:39:55;;;;;;;8.70;2.25;;;20.70;50.70;;;;;;7399526;19;19919;-71
2023/04/20 08:42:22;;;;;;;8.93;2.65;;;21.30;49.80;;;;;;7367103;19;21004;-72
2023/04/20 08:44:52;;;;;;;6.28;2.40;;;21.70;49.10;;;;;;7398784;19;19935;-71
2023/04/20 08:47:19;;;;;;;10.88;2.78;;;22.20;48.30;;;;;;7400365;19;19923;-72
2023/04/20 08:49:48;;;;;;;7.30;2.60;;;21.80;48.50;;;;;;7405053;19;20032;-72
2023/04/20 08:52:14;;;;;;;10.55;3.03;;;22.20;48.70;;;;;;7404452;19;19946;-71
2023/04/20 08:54:41;;;;;;;8.98;2.70;;;21.60;48.90;;;;;;7405434;19;19907;-72
2023/04/20 08:57:06;;;;;;;7.65;3.03;;;21.70;48.50;;;;;;7401352;19;19917;-71
2023/04/20 08:59:35;;;;;;;8.60;3.00;;;22.70;48.30;;;;;;7403137;19;19918;-71
2023/04/20 09:02:12;;;;;;;5.82;2.83;;;22.60;48.60;;;;;;7404128;19;19922;-72
2023/04/20 09:04:39;;;;;;;7.05;2.95;;;21.50;50.00;;;;;;7403734;19;19915;-72
2023/04/20 09:07:06;;;;;;;10.43;3.75;;;20.80;51.80;;;;;;7390939;19;19918;-72
2023/04/20 09:09:32;;;;;;;6.32;2.92;;;22.00;51.50;;;;;;7391435;19;19984;-73
2023/04/20 09:12:03;;;;;;;9.25;2.92;;;22.40;50.50;;;;;;7394856;19;19926;-72
2023/04/20 09:14:30;;;;;;;7.90;3.92;;;23.30;49.90;;;;;;7396619;19;20237;-72
2023/04/20 09:17:01;;;;;;;9.40;2.67;;;23.80;49.40;;;;;;7395904;19;19919;-72
2023/04/20 09:19:30;;;;;;;10.05;2.70;;;23.40;51.40;;;;;;7403033;19;19974;-71
2023/04/20 09:21:59;;;;;;;10.65;3.30;;;21.90;53.20;;;;;;7398270;19;20346;-71
2023/04/20 09:24:32;;;;;;;11.15;2.92;;;21.80;54.10;;;;;;7401933;19;19978;-71
2023/04/20 09:27:00;;;;;;;10.93;3.28;;;21.90;55.00;;;;;;7403291;19;19930;-71
2023/04/20 09:29:27;;;;;;;10.32;3.33;;;23.10;53.10;;;;;;7402396;19;19995;-72
2023/04/20 09:31:53;;;;;;;9.45;3.10;;;23.70;52.50;;;;;;7403387;19;20259;-72
2023/04/20 09:34:19;;;;;;;;;;;23.90;52.30;;;;;;7401648;19;19929;-73
2023/04/20 09:36:50;;;;;;;10.02;3.05;;;24.50;52.40;;;;;;7403883;19;19978;-71
2023/04/20 09:39:22;;;;;;;11.35;3.20;;;23.70;53.70;;;;;;7401216;19;19922;-71
2023/04/20 09:41:49;;;;;;;8.60;2.30;;;24.30;53.20;;;;;;7401891;19;19946;-72
2023/04/20 09:44:16;;;;;;;8.13;2.67;;;23.80;53.70;;;;;;7402478;19;19925;-72
2023/04/20 09:46:43;;;;;;;7.82;2.75;;;22.00;55.80;;;;;;7402087;19;19915;-72
2023/04/20 09:49:12;;;;;;;13.45;2.92;;;23.20;56.00;;;;;;7402953;19;19918;-72
2023/04/20 09:51:45;;;;;;;10.52;2.80;;;23.30;56.00;;;;;;7406053;19;19918;-73
2023/04/20 09:54:12;;;;;;;6.40;2.88;;;23.00;57.20;;;;;;7403506;19;19924;-71
2023/04/20 09:56:39;;;;;;;9.93;2.53;;;23.30;56.30;;;;;;7404680;19;19915;-74
2023/04/20 09:59:06;;;;;;;7.20;2.42;;;23.50;56.00;;;;;;7393002;19;20328;-80
2023/04/20 10:01:34;;;;;;;6.63;2.33;;;23.80;54.70;;;;;;7406406;19;19925;-73
2023/04/20 10:04:02;;;;;;;6.72;2.50;;;24.20;53.90;;;;;;7403670;19;19945;-71
2023/04/20 10:06:31;;;;;;;14.82;2.80;;;23.70;54.10;;;;;;7399951;19;19937;-72
2023/04/20 10:09:00;;;;;;;10.82;3.25;;;23.10;55.40;;;;;;7403555;19;20032;-72
2023/04/20 10:11:26;;;;;;;9.95;2.95;;;23.70;54.60;;;;;;7401385;19;19915;-72
2023/04/20 10:13:52;;;;;;;8.85;2.70;;;23.40;54.10;;;;;;7402124;19;19917;-73
2023/04/20 10:16:19;;;;;;;7.43;2.80;;;23.20;55.20;;;;;;7399762;19;19915;-73
2023/04/20 10:18:56;;;;;;;10.63;3.13;;;23.30;54.40;;;;;;7404341;19;19918;-72
2023/04/20 10:21:22;;;;;;;10.60;2.20;;;22.60;55.90;;;;;;7402363;19;19950;-72
2023/04/20 10:23:49;;;;;;;7.25;1.90;;;21.90;57.20;;;;;;7403190;19;19917;-72
2023/04/20 10:26:15;;;;;;;9.80;2.35;;;21.30;58.20;;;;;;7396035;19;20343;-72
2023/04/20 10:28:43;;;;;;;11.85;2.33;;;21.30;59.40;;;;;;7403063;19;19962;-72
2023/04/20 10:31:14;;;;;;;8.95;2.38;;;21.30;59.60;;;;;;7397409;19;19915;-73
2023/04/20 10:33:55;;;;;;;11.95;3.03;;;21.00;59.50;;;;;;7403503;19;19922;-72
2023/04/20 10:36:30;;;;;;;10.60;2.90;;;21.00;60.60;;;;;;7398671;19;19914;-74
2023/04/20 10:38:56;;;;;;;10.40;3.58;;;21.50;59.40;;;;;;7398118;19;19929;-72
2023/04/20 10:41:23;;;;;;;15.88;3.67;;;21.70;59.30;;;;;;7398101;19;19945;-72
2023/04/20 10:43:49;;;;;;;10.65;4.55;;;21.30;58.60;;;;;;7401195;19;19942;-72
2023/04/20 10:46:18;;;;;;;11.02;5.40;;;21.60;59.20;;;;;;7400496;19;20825;-72
2023/04/20 10:48:50;;;;;;;16.83;8.02;;;21.50;59.10;;;;;;7402001;19;19937;-73
2023/04/20 10:51:17;;;;;;;13.27;6.65;;;22.30;58.70;;;;;;7400094;19;19919;-72
2023/04/20 10:53:42;;;;;;;13.38;6.15;;;21.90;58.30;;;;;;7402293;19;19936;-72
2023/04/20 10:56:09;;;;;;;13.60;6.43;;;21.00;58.30;;;;;;7399571;19;19914;-72
2023/04/20 10:58:35;;;;;;;15.68;7.07;;;20.90;59.60;;;;;;7402922;19;19939;-73
2023/04/20 11:01:03;;;;;;;9.40;6.22;;;20.90;59.70;;;;;;7402808;19;19907;-72
2023/04/20 11:03:31;;;;;;;12.75;8.65;;;21.70;59.10;;;;;;7358632;19;19914;-70
2023/04/20 11:06:00;;;;;;;14.55;9.77;;;22.10;57.90;;;;;;7402863;19;19937;-71
2023/04/20 11:08:37;;;;;;;17.70;13.48;;;22.30;57.60;;;;;;7401380;19;19910;-71
2023/04/20 11:11:04;;;;;;;17.00;11.85;;;21.90;57.10;;;;;;7397778;19;19910;-71
2023/04/20 11:13:31;;;;;;;18.85;12.55;;;21.00;57.80;;;;;;7403500;19;19922;-71
2023/04/20 11:15:58;;;;;;;17.40;10.80;;;22.10;56.30;;;;;;7399383;19;20374;-72
2023/04/20 11:18:23;;;;;;;;;;;21.50;56.70;;;;;;7402828;19;19914;-71
2023/04/20 11:20:51;;;;;;;12.30;8.98;;;22.00;57.20;;;;;;7401475;19;19922;-72
2023/04/20 11:23:19;;;;;;;19.10;10.60;;;20.90;58.10;;;;;;7378512;19;20494;-72
2023/04/20 11:25:53;;;;;;;17.02;12.20;;;21.70;58.40;;;;;;7401407;19;19922;-72
2023/04/20 11:28:19;;;;;;;18.80;14.90;;;22.50;56.30;;;;;;7397142;19;19923;-71
2023/04/20 11:30:45;;;;;;;16.30;14.30;;;21.20;57.00;;;;;;7394100;19;20250;-70
2023/04/20 11:33:12;;;;;;;23.23;19.05;;;21.80;57.40;;;;;;7382438;19;19918;-71
2023/04/20 11:35:40;;;;;;;27.42;16.48;;;21.60;58.00;;;;;;7397622;19;20271;-71
2023/04/20 11:38:06;;;;;;;18.83;12.27;;;22.00;57.80;;;;;;7389839;19;19911;-71
2023/04/20 11:40:32;;;;;;;21.33;15.27;;;21.90;57.80;;;;;;7395228;19;19915;-72
2023/04/20 11:43:03;;;;;;;22.45;16.75;;;22.50;57.30;;;;;;7394114;19;20287;-71
2023/04/20 11:45:32;;;;;;;23.17;18.10;;;22.50;57.70;;;;;;7397416;19;19927;-71
2023/04/20 11:47:58;;;;;;;20.50;13.65;;;21.50;57.90;;;;;;7389475;19;19930;-71
2023/04/20 11:50:24;;;;;;;22.60;15.32;;;21.50;58.00;;;;;;7397290;19;19921;-71
2023/04/20 11:52:50;;;;;;;24.58;16.48;;;22.40;57.50;;;;;;7391927;19;19925;-70
2023/04/20 11:55:16;;;;;;;22.58;14.60;;;23.00;56.20;;;;;;7394874;19;20399;-70
2023/04/20 11:57:42;;;;;;;24.00;12.07;;;22.40;57.00;;;;;;7391921;19;19929;-71
2023/04/20 12:00:08;;;;;;;18.95;11.43;;;22.30;58.10;;;;;;7389444;19;19974;-70
2023/04/20 12:02:34;;;;;;;23.33;12.75;;;21.40;57.80;;;;;;7392030;19;20331;-73
2023/04/20 12:05:01;;;;;;;19.30;11.50;;;21.70;58.30;;;;;;7396136;19;19998;-71
2023/04/20 12:07:27;;;;;;;20.45;12.48;;;21.60;56.80;;;;;;7394361;19;19923;-71
2023/04/20 12:09:52;;;;;;;23.25;13.73;;;22.20;57.20;;;;;;7401354;19;19956;-73
2023/04/20 12:12:18;;;;;;;18.90;13.15;;;22.60;56.20;;;;;;7400847;19;19919;-71
2023/04/20 12:14:44;;;;;;;23.90;15.55;;;22.70;56.50;;;;;;7398809;19;19934;-71
2023/04/20 12:17:10;;;;;;;30.58;17.83;;;22.70;57.00;;;;;;7398777;19;19911;-72
2023/04/20 12:19:36;;;;;;;28.92;16.63;;;22.60;57.70;;;;;;7398900;19;19914;-70
2023/04/20 12:22:02;;;;;;;20.63;11.50;;;23.00;56.00;;;;;;7395989;19;20351;-70
2023/04/20 12:24:28;;;;;;;19.27;10.65;;;21.90;54.90;;;;;;7405970;19;19926;-70
2023/04/20 12:26:54;;;;;;;18.20;9.85;;;21.70;55.30;;;;;;7405420;19;19911;-73
2023/04/20 12:29:20;;;;;;;17.95;8.90;;;22.30;55.60;;;;;;7402818;19;20263;-71
2023/04/20 12:31:46;;;;;;;;;;;22.20;54.20;;;;;;7408344;19;19919;-72
2023/04/20 12:34:12;;;;;;;10.55;6.40;;;22.20;53.60;;;;;;7399651;19;19932;-70
2023/04/20 12:36:38;;;;;;;14.43;6.30;;;22.30;53.90;;;;;;7406645;19;19914;-71
2023/04/20 12:39:03;;;;;;;10.45;6.28;;;21.90;55.50;;;;;;7402456;19;19915;-70
2023/04/20 12:41:30;;;;;;;11.57;5.85;;;22.30;55.10;;;;;;7405268;19;19906;-72